Time;durP1;ratioP1;P1;durP2;ratioP2;P2;SDS_P1;SDS_P2;PMS_P1;PMS_P2;Temp;Humidity;BMP_temperature;BMP_pressure;BME280_temperature;BME280_humidity;BME280_pressure;Samples;Min_cycle;Max_cycle;Signal;HPM_P1;HPM_P2
2023/06/30 00:00:12;;;;;;;5.50;2.90;;;22.90;99.90;;;;;;5091625;28;20265;-56
2023/06/30 00:02:39;;;;;;;4.63;2.72;;;23.00;99.90;;;;;;5091813;28;20208;-56
2023/06/30 00:05:06;;;;;;;3.53;2.35;;;23.00;99.90;;;;;;5091457;28;20687;-56
2023/06/30 00:07:33;;;;;;;5.28;2.70;;;23.00;99.90;;;;;;5091452;28;20204;-55
2023/06/30 00:10:01;;;;;;;6.18;2.60;;;23.00;99.90;;;;;;5091553;28;20583;-56
2023/06/30 00:12:27;;;;;;;6.68;2.70;;;22.90;99.90;;;;;;5091613;28;20261;-55
2023/06/30 00:14:54;;;;;;;4.63;2.90;;;22.90;99.90;;;;;;5091485;28;20232;-55
2023/06/30 00:17:21;;;;;;;3.65;2.28;;;22.90;99.90;;;;;;5091350;28;20223;-54
2023/06/30 00:19:50;;;;;;;4.38;2.42;;;22.80;99.90;;;;;;5091495;28;20569;-56
2023/06/30 00:22:19;;;;;;;5.32;2.80;;;22.80;99.90;;;;;;5091720;28;20227;-56
2023/06/30 00:24:46;;;;;;;4.97;3.00;;;22.80;99.90;;;;;;5091035;28;20675;-55
2023/06/30 00:27:14;;;;;;;3.47;3.00;;;22.90;99.90;;;;;;5091306;28;20265;-56
2023/06/30 00:29:41;;;;;;;6.68;2.80;;;22.80;99.90;;;;;;5091434;28;20204;-56
2023/06/30 00:32:08;;;;;;;4.55;2.47;;;22.80;99.90;;;;;;5091530;28;20212;-55
2023/06/30 00:34:34;;;;;;;5.35;2.92;;;22.70;99.90;;;;;;5091290;28;20624;-55
2023/06/30 00:37:01;;;;;;;4.28;2.65;;;22.70;99.90;;;;;;5091406;28;20207;-56
2023/06/30 00:39:28;;;;;;;3.83;2.70;;;22.70;99.90;;;;;;5091651;28;20772;-56
2023/06/30 00:41:55;;;;;;;5.40;3.20;;;22.70;99.90;;;;;;5091592;28;20664;-56
2023/06/30 00:44:23;;;;;;;3.72;2.67;;;22.70;99.90;;;;;;5091611;28;20224;-55
2023/06/30 00:46:50;;;;;;;3.88;2.65;;;22.70;99.90;;;;;;5091183;28;20231;-55
2023/06/30 00:49:17;;;;;;;3.28;2.83;;;22.60;99.90;;;;;;5091440;28;20273;-56
2023/06/30 00:51:44;;;;;;;3.47;2.65;;;22.50;99.90;;;;;;5091146;28;20204;-55
2023/06/30 00:54:10;;;;;;;6.85;2.80;;;22.50;99.90;;;;;;5091254;28;20233;-56
2023/06/30 00:56:37;;;;;;;3.03;2.50;;;22.50;99.90;;;;;;5091194;28;20262;-55
2023/06/30 00:59:04;;;;;;;4.03;2.80;;;22.40;99.90;;;;;;5091344;28;20265;-55
2023/06/30 01:01:38;;;;;;;4.80;2.85;;;22.30;99.90;;;;;;5091024;28;20204;-55
2023/06/30 01:04:11;;;;;;;6.63;3.03;;;22.30;99.90;;;;;;5093290;28;20219;-55
2023/06/30 01:06:44;;;;;;;8.18;3.45;;;22.10;99.90;;;;;;5094486;28;20691;-56
2023/06/30 01:09:16;;;;;;;4.63;2.97;;;22.00;99.90;;;;;;5095025;28;20211;-55
2023/06/30 01:11:43;;;;;;;7.13;2.80;;;21.90;99.90;;;;;;5095147;28;20307;-56
2023/06/30 01:14:11;;;;;;;4.45;2.90;;;21.80;99.90;;;;;;5095105;28;20240;-57
2023/06/30 01:16:41;;;;;;;4.13;2.80;;;21.80;99.90;;;;;;5094373;28;20234;-57
2023/06/30 01:19:19;;;;;;;6.68;2.83;;;21.80;99.90;;;;;;5094628;28;20736;-56
2023/06/30 01:21:47;;;;;;;6.90;3.08;;;21.80;99.90;;;;;;5094512;28;20235;-56
2023/06/30 01:24:17;;;;;;;5.50;2.72;;;21.70;99.90;;;;;;5094409;28;20315;-57
2023/06/30 01:26:44;;;;;;;3.67;2.70;;;21.70;99.90;;;;;;5094293;28;20228;-57
2023/06/30 01:29:11;;;;;;;3.92;2.63;;;21.60;99.90;;;;;;5094722;28;20611;-57
2023/06/30 01:31:43;;;;;;;5.30;2.90;;;21.60;99.90;;;;;;5094056;28;20209;-57
2023/06/30 01:34:10;;;;;;;4.20;2.90;;;21.60;99.90;;;;;;5094540;28;20274;-57
2023/06/30 01:36:36;;;;;;;3.28;2.90;;;21.70;99.90;;;;;;5093914;28;20295;-56
2023/06/30 01:39:03;;;;;;;3.58;2.70;;;21.60;99.90;;;;;;5094075;28;20671;-56
2023/06/30 01:41:30;;;;;;;5.40;2.67;;;21.60;99.90;;;;;;5094324;28;20525;-56
2023/06/30 01:43:57;;;;;;;4.35;2.63;;;21.60;99.90;;;;;;5093841;28;20208;-56
2023/06/30 01:46:24;;;;;;;4.15;2.97;;;21.60;99.90;;;;;;5093562;28;20699;-56
2023/06/30 01:48:52;;;;;;;3.65;2.97;;;21.60;99.90;;;;;;5094328;28;20211;-58
2023/06/30 01:51:19;;;;;;;4.35;2.85;;;21.60;99.90;;;;;;5094844;28;20211;-56
2023/06/30 01:53:46;;;;;;;5.03;3.17;;;21.60;99.90;;;;;;5094423;28;20211;-56
2023/06/30 01:56:13;;;;;;;5.85;3.15;;;21.60;99.90;;;;;;5094321;28;20208;-56
2023/06/30 01:58:40;;;;;;;9.30;2.85;;;21.60;99.90;;;;;;5094770;28;20200;-57
2023/06/30 02:01:06;;;;;;;4.28;3.00;;;21.60;99.90;;;;;;5095082;28;20208;-56
2023/06/30 02:03:33;;;;;;;4.25;3.10;;;21.50;99.90;;;;;;5095032;28;20596;-57
2023/06/30 02:06:02;;;;;;;6.10;2.80;;;21.50;99.90;;;;;;5094719;28;20309;-57
2023/06/30 02:08:29;;;;;;;6.90;3.40;;;21.30;99.90;;;;;;5094670;28;20247;-57
2023/06/30 02:10:56;;;;;;;3.42;2.28;;;21.30;99.90;;;;;;5094843;28;20208;-57
2023/06/30 02:13:22;;;;;;;3.63;2.88;;;21.30;99.90;;;;;;5094750;28;20212;-57
2023/06/30 02:15:49;;;;;;;6.05;2.97;;;21.20;99.90;;;;;;5092710;28;20738;-56
2023/06/30 02:18:16;;;;;;;4.40;2.55;;;21.10;99.90;;;;;;5093698;28;20242;-56
2023/06/30 02:20:43;;;;;;;3.53;3.20;;;21.00;99.90;;;;;;5093826;28;20676;-56
2023/06/30 02:23:10;;;;;;;5.25;3.13;;;21.00;99.90;;;;;;5093737;28;20208;-56
2023/06/30 02:25:37;;;;;;;10.95;3.40;;;20.90;99.90;;;;;;5093099;28;20228;-57
2023/06/30 02:28:04;;;;;;;3.70;3.10;;;20.90;99.90;;;;;;5093187;28;20281;-56
2023/06/30 02:30:31;;;;;;;5.22;3.20;;;20.90;99.90;;;;;;5092991;28;20607;-55
2023/06/30 02:32:58;;;;;;;3.40;3.05;;;20.80;99.90;;;;;;5093147;28;20663;-56
2023/06/30 02:35:25;;;;;;;3.72;3.22;;;20.80;99.90;;;;;;5093264;28;20334;-55
2023/06/30 02:37:51;;;;;;;5.15;3.13;;;20.80;99.90;;;;;;5093512;28;20232;-56
2023/06/30 02:40:19;;;;;;;4.00;2.75;;;20.70;99.90;;;;;;5093701;28;20561;-57
2023/06/30 02:42:46;;;;;;;3.55;2.92;;;20.70;99.90;;;;;;5093923;28;20208;-56
2023/06/30 02:45:13;;;;;;;6.05;3.17;;;20.60;99.90;;;;;;5093803;28;20232;-57
2023/06/30 02:47:40;;;;;;;4.63;2.92;;;20.60;99.90;;;;;;5093501;28;20331;-56
2023/06/30 02:50:08;;;;;;;5.07;3.40;;;20.60;99.90;;;;;;5093582;28;20208;-59
2023/06/30 02:52:34;;;;;;;4.55;3.25;;;20.60;99.90;;;;;;5093783;28;20204;-58
2023/06/30 02:55:01;;;;;;;4.68;2.97;;;20.60;99.90;;;;;;5093248;28;20799;-56
2023/06/30 02:57:29;;;;;;;3.80;3.05;;;20.40;99.90;;;;;;5093383;28;20656;-55
2023/06/30 02:59:56;;;;;;;4.40;3.45;;;20.50;99.90;;;;;;5094529;28;20706;-57
2023/06/30 03:02:22;;;;;;;3.53;3.03;;;20.40;99.90;;;;;;5094370;28;20268;-56
2023/06/30 03:04:49;;;;;;;4.07;3.30;;;20.50;99.90;;;;;;5094581;28;20634;-56
2023/06/30 03:07:16;;;;;;;3.78;3.22;;;20.50;99.90;;;;;;5094236;28;20772;-56
2023/06/30 03:09:43;;;;;;;4.03;3.30;;;20.60;99.90;;;;;;5094193;28;20722;-56
2023/06/30 03:12:10;;;;;;;4.03;2.92;;;20.60;99.90;;;;;;5093860;28;20208;-56
2023/06/30 03:14:38;;;;;;;4.80;3.45;;;20.60;99.90;;;;;;5092921;28;20382;-56
2023/06/30 03:17:05;;;;;;;6.93;3.22;;;20.60;99.90;;;;;;5091918;28;20676;-56
2023/06/30 03:19:31;;;;;;;4.40;3.30;;;20.70;99.90;;;;;;5092163;28;20208;-56
2023/06/30 03:21:58;;;;;;;4.70;3.10;;;20.60;99.90;;;;;;5092400;28;20559;-56
2023/06/30 03:24:25;;;;;;;7.63;3.17;;;20.50;99.90;;;;;;5092385;28;20235;-56
2023/06/30 03:26:52;;;;;;;5.90;3.47;;;20.50;99.90;;;;;;5090674;28;20267;-56
2023/06/30 03:29:18;;;;;;;4.90;3.13;;;20.40;99.90;;;;;;5091914;28;20208;-56
2023/06/30 03:31:46;;;;;;;4.88;3.47;;;20.20;99.90;;;;;;5092173;28;20331;-57
2023/06/30 03:34:13;;;;;;;8.07;3.67;;;20.20;99.90;;;;;;5091692;28;20221;-56
2023/06/30 03:36:40;;;;;;;4.45;3.70;;;20.10;99.90;;;;;;5091437;28;20205;-57
2023/06/30 03:39:06;;;;;;;5.70;3.63;;;20.10;99.90;;;;;;5092215;28;20375;-56
2023/06/30 03:41:33;;;;;;;4.45;3.20;;;20.00;99.90;;;;;;5091834;28;20208;-57
2023/06/30 03:44:01;;;;;;;4.13;3.30;;;20.00;99.90;;;;;;5092022;28;20216;-57
2023/06/30 03:46:27;;;;;;;4.55;3.47;;;19.90;99.90;;;;;;5092137;28;20227;-56
2023/06/30 03:48:55;;;;;;;5.40;3.38;;;19.90;99.90;;;;;;5092066;28;20208;-56
2023/06/30 03:51:22;;;;;;;3.67;3.13;;;19.90;99.90;;;;;;5092061;28;20650;-55
2023/06/30 03:53:48;;;;;;;7.10;3.83;;;20.00;99.90;;;;;;5092444;28;20567;-57
2023/06/30 03:56:15;;;;;;;6.10;3.88;;;20.00;99.90;;;;;;5091798;28;20215;-56
2023/06/30 03:58:42;;;;;;;4.05;3.40;;;20.00;99.90;;;;;;5091774;28;20208;-56
2023/06/30 04:01:10;;;;;;;5.20;3.67;;;20.00;99.90;;;;;;5092159;28;20216;-56
2023/06/30 04:03:37;;;;;;;3.97;3.00;;;20.10;99.90;;;;;;5091619;28;20663;-58
2023/06/30 04:06:06;;;;;;;5.78;3.30;;;20.20;99.90;;;;;;5091336;28;20262;-55
2023/06/30 04:08:33;;;;;;;5.93;3.17;;;20.20;99.90;;;;;;5091725;28;20583;-57
2023/06/30 04:10:59;;;;;;;4.57;3.42;;;20.30;99.90;;;;;;5091261;28;20215;-56
2023/06/30 04:13:26;;;;;;;5.63;3.47;;;20.20;99.90;;;;;;5091711;28;20253;-57
2023/06/30 04:15:53;;;;;;;5.18;3.60;;;20.30;99.90;;;;;;5090980;28;20232;-56
2023/06/30 04:18:19;;;;;;;5.03;3.58;;;20.30;99.90;;;;;;5091241;28;20211;-56
2023/06/30 04:20:47;;;;;;;4.30;3.20;;;20.40;99.90;;;;;;5091927;28;20212;-56
2023/06/30 04:23:15;;;;;;;4.15;3.72;;;20.50;99.90;;;;;;5091760;28;20298;-57
2023/06/30 04:25:41;;;;;;;5.30;3.28;;;20.60;99.90;;;;;;5091828;28;20639;-60
2023/06/30 04:28:08;;;;;;;6.97;4.13;;;20.60;99.90;;;;;;5091192;28;20232;-59
2023/06/30 04:30:35;;;;;;;4.90;3.35;;;20.50;99.90;;;;;;5090812;28;20208;-59
2023/06/30 04:33:02;;;;;;;6.40;4.00;;;20.60;99.90;;;;;;5090985;28;20249;-59
2023/06/30 04:35:28;;;;;;;4.35;3.55;;;20.90;99.90;;;;;;5091191;28;20228;-59
2023/06/30 04:37:55;;;;;;;6.80;3.63;;;21.00;99.90;;;;;;5091129;28;20207;-59
2023/06/30 04:40:23;;;;;;;5.57;3.33;;;21.20;99.90;;;;;;5095237;28;20204;-59
2023/06/30 04:42:49;;;;;;;4.40;3.60;;;21.20;99.90;;;;;;5095000;28;20306;-59
2023/06/30 04:45:16;;;;;;;4.30;3.30;;;21.40;99.90;;;;;;5094606;28;20230;-58
2023/06/30 04:47:44;;;;;;;7.28;3.97;;;21.50;99.90;;;;;;5094429;28;20744;-63
2023/06/30 04:50:10;;;;;;;4.43;3.13;;;21.70;99.90;;;;;;5091094;28;20212;-65
2023/06/30 04:52:37;;;;;;;6.15;3.83;;;22.00;99.90;;;;;;5095017;28;20204;-65
2023/06/30 04:55:04;;;;;;;8.35;4.10;;;22.20;99.90;;;;;;5095189;28;20223;-63
2023/06/30 04:57:32;;;;;;;5.78;3.80;;;22.30;99.90;;;;;;5094915;28;20200;-56
2023/06/30 04:59:59;;;;;;;5.90;3.85;;;22.50;99.90;;;;;;5094490;28;20204;-56
2023/06/30 05:02:26;;;;;;;6.30;3.40;;;22.60;99.90;;;;;;5095008;28;20313;-58
2023/06/30 05:04:52;;;;;;;5.40;3.45;;;22.70;99.90;;;;;;5094627;28;20270;-58
2023/06/30 05:07:19;;;;;;;5.43;3.53;;;22.80;99.90;;;;;;5094253;28;20277;-58
2023/06/30 05:09:47;;;;;;;5.72;3.20;;;22.80;99.90;;;;;;5094565;28;20227;-58
2023/06/30 05:12:14;;;;;;;6.70;4.00;;;22.90;99.90;;;;;;5094561;28;20204;-58
2023/06/30 05:14:42;;;;;;;5.60;3.47;;;22.90;99.90;;;;;;5094456;28;20239;-58
2023/06/30 05:17:09;;;;;;;5.55;3.60;;;22.80;99.90;;;;;;5094387;28;20250;-58
2023/06/30 05:19:36;;;;;;;4.85;3.60;;;22.90;99.90;;;;;;5094571;28;20208;-58
2023/06/30 05:22:03;;;;;;;5.10;3.63;;;22.80;99.90;;;;;;5094635;28;20204;-57
2023/06/30 05:24:29;;;;;;;6.15;3.85;;;22.80;99.90;;;;;;5094553;28;20231;-57
2023/06/30 05:26:57;;;;;;;5.15;3.70;;;22.70;99.90;;;;;;5093939;28;20223;-58
2023/06/30 05:29:24;;;;;;;4.38;3.78;;;22.70;99.90;;;;;;5094622;28;20212;-58
2023/06/30 05:31:52;;;;;;;11.43;3.78;;;22.70;99.90;;;;;;5094508;28;20204;-58
2023/06/30 05:34:18;;;;;;;4.43;3.45;;;22.80;99.90;;;;;;5094139;28;20228;-57
2023/06/30 05:36:45;;;;;;;7.13;4.10;;;22.70;99.90;;;;;;5093996;28;20204;-58
2023/06/30 05:39:12;;;;;;;5.90;3.75;;;22.80;99.90;;;;;;5094755;28;20204;-58
2023/06/30 05:41:39;;;;;;;6.03;4.05;;;22.80;99.90;;;;;;5094351;28;20289;-58
2023/06/30 05:44:06;;;;;;;5.85;4.45;;;22.80;99.90;;;;;;5094175;28;20208;-58
2023/06/30 05:46:33;;;;;;;8.90;4.22;;;22.90;99.90;;;;;;5093734;28;20269;-57
2023/06/30 05:49:05;;;;;;;7.47;4.43;;;22.90;99.90;;;;;;5093883;28;20220;-57
2023/06/30 05:51:32;;;;;;;8.38;3.90;;;23.00;99.90;;;;;;5092882;28;20199;-57
2023/06/30 05:53:58;;;;;;;6.15;4.20;;;23.00;99.90;;;;;;5093672;28;20617;-57
2023/06/30 05:56:25;;;;;;;7.47;4.32;;;23.10;99.90;;;;;;5093497;28;20204;-57
2023/06/30 05:58:52;;;;;;;4.88;4.25;;;23.10;99.90;;;;;;5093697;28;20529;-56
2023/06/30 06:01:18;;;;;;;6.32;4.22;;;23.10;99.90;;;;;;5093703;28;20283;-57
2023/06/30 06:03:45;;;;;;;5.40;4.05;;;22.90;99.90;;;;;;5093410;28;20636;-58
2023/06/30 06:06:13;;;;;;;8.82;4.50;;;22.80;99.90;;;;;;5093419;28;20285;-59
2023/06/30 06:08:40;;;;;;;9.43;5.57;;;22.80;99.90;;;;;;5093146;28;20257;-57
2023/06/30 06:11:07;;;;;;;11.25;5.05;;;22.80;99.90;;;;;;5093743;28;20235;-58
2023/06/30 06:13:35;;;;;;;7.20;5.30;;;22.80;99.90;;;;;;5093608;28;20583;-58
2023/06/30 06:16:02;;;;;;;10.18;5.60;;;22.80;99.90;;;;;;5092852;28;20232;-57
2023/06/30 06:18:29;;;;;;;13.95;6.22;;;22.70;99.90;;;;;;5093555;28;20208;-58
2023/06/30 06:20:56;;;;;;;8.75;5.72;;;22.70;99.90;;;;;;5093267;28;20254;-58
2023/06/30 06:23:24;;;;;;;7.85;5.35;;;22.70;99.90;;;;;;5093048;28;20321;-57
2023/06/30 06:25:51;;;;;;;9.35;5.85;;;22.70;99.90;;;;;;5092850;28;20286;-59
2023/06/30 06:28:19;;;;;;;7.72;5.03;;;22.60;99.90;;;;;;5092953;28;20228;-58
2023/06/30 06:30:45;;;;;;;9.05;5.53;;;22.60;99.90;;;;;;5093536;28;20264;-57
2023/06/30 06:33:12;;;;;;;10.43;5.95;;;22.50;99.90;;;;;;5093080;28;20595;-57
2023/06/30 06:35:39;;;;;;;9.82;5.70;;;22.30;99.90;;;;;;5093161;28;20234;-57
2023/06/30 06:38:06;;;;;;;7.22;5.65;;;22.10;99.90;;;;;;5093297;28;20204;-58
2023/06/30 06:40:34;;;;;;;11.30;6.55;;;21.90;99.90;;;;;;5093310;28;20208;-58
2023/06/30 06:43:00;;;;;;;10.13;6.63;;;21.80;99.90;;;;;;5092916;28;20208;-58
2023/06/30 06:45:27;;;;;;;8.10;5.82;;;21.80;99.90;;;;;;5092835;28;20232;-58
2023/06/30 06:48:19;;;;;;;7.25;6.03;;;21.80;99.90;;;;;;5092505;28;20274;-58
2023/06/30 06:50:47;;;;;;;9.38;6.00;;;21.90;99.90;;;;;;5092792;28;20210;-58
2023/06/30 06:53:19;;;;;;;7.32;5.45;;;22.10;99.90;;;;;;5092679;28;20201;-58
2023/06/30 06:55:47;;;;;;;11.45;6.50;;;22.10;99.90;;;;;;5092605;28;20319;-57
2023/06/30 06:58:14;;;;;;;7.25;5.35;;;22.20;99.90;;;;;;5092757;28;20223;-58
2023/06/30 07:00:41;;;;;;;8.70;6.13;;;22.30;99.90;;;;;;5092293;28;20294;-58
2023/06/30 07:03:07;;;;;;;9.27;5.47;;;22.40;99.90;;;;;;5092908;28;20257;-58
2023/06/30 07:05:35;;;;;;;7.07;5.55;;;22.40;99.90;;;;;;5092530;28;20650;-58
2023/06/30 07:08:04;;;;;;;11.02;6.22;;;22.40;99.90;;;;;;5092358;28;20232;-59
2023/06/30 07:10:32;;;;;;;8.10;6.05;;;22.50;99.90;;;;;;5093070;28;20290;-58
2023/06/30 07:13:00;;;;;;;8.27;6.15;;;22.50;99.90;;;;;;5092611;28;20648;-57
2023/06/30 07:15:26;;;;;;;8.95;6.47;;;22.60;99.90;;;;;;5092780;28;20235;-57
2023/06/30 07:17:53;;;;;;;8.38;5.80;;;22.60;99.90;;;;;;5092287;28;20208;-58
2023/06/30 07:20:20;;;;;;;9.07;6.20;;;22.70;99.90;;;;;;5092429;28;20204;-59
2023/06/30 07:22:47;;;;;;;9.50;6.20;;;22.80;99.90;;;;;;5092044;28;20212;-58
2023/06/30 07:25:14;;;;;;;7.72;6.18;;;22.80;99.90;;;;;;5092134;28;20220;-58
2023/06/30 07:27:40;;;;;;;8.48;6.68;;;22.90;99.90;;;;;;5091578;28;20240;-57
2023/06/30 07:30:09;;;;;;;8.60;6.75;;;22.90;99.90;;;;;;5092025;28;20208;-58
2023/06/30 07:32:36;;;;;;;9.52;6.53;;;22.90;99.90;;;;;;5092302;28;20203;-60
2023/06/30 07:35:03;;;;;;;8.48;6.25;;;22.90;99.90;;;;;;5091944;28;20243;-58
2023/06/30 07:37:30;;;;;;;7.60;6.03;;;22.90;99.90;;;;;;5091840;28;20246;-58
2023/06/30 07:39:56;;;;;;;7.18;6.07;;;23.00;99.90;;;;;;5091998;28;20246;-58
2023/06/30 07:42:23;;;;;;;11.68;6.20;;;23.00;99.90;;;;;;5091857;28;20208;-60
2023/06/30 07:44:50;;;;;;;8.82;5.95;;;23.10;99.90;;;;;;5092054;28;20224;-59
2023/06/30 07:47:19;;;;;;;7.63;5.70;;;23.20;99.90;;;;;;5091370;28;20196;-58
2023/06/30 07:49:45;;;;;;;8.55;6.40;;;23.30;99.90;;;;;;5091743;28;20673;-58
2023/06/30 07:52:12;;;;;;;8.52;5.53;;;23.20;99.90;;;;;;5091615;28;20246;-58
2023/06/30 07:54:40;;;;;;;9.45;6.78;;;23.20;99.90;;;;;;5091718;28;20228;-58
2023/06/30 07:57:06;;;;;;;6.50;5.80;;;23.00;99.90;;;;;;5091333;28;20207;-58
2023/06/30 07:59:33;;;;;;;8.43;5.35;;;22.80;99.90;;;;;;5091677;28;20244;-58
2023/06/30 08:02:00;;;;;;;7.93;5.78;;;22.90;99.90;;;;;;5091549;28;20256;-58
2023/06/30 08:04:28;;;;;;;9.85;5.80;;;23.00;99.90;;;;;;5091458;28;20232;-58
2023/06/30 08:06:55;;;;;;;7.25;5.90;;;23.20;99.90;;;;;;5091600;28;20212;-58
2023/06/30 08:09:22;;;;;;;9.13;6.22;;;23.30;99.90;;;;;;5091517;28;20223;-55
2023/06/30 08:11:48;;;;;;;9.02;6.93;;;23.40;99.90;;;;;;5091688;28;20204;-55
2023/06/30 08:14:15;;;;;;;9.07;7.05;;;23.40;99.90;;;;;;5090723;28;20318;-54
2023/06/30 08:16:42;;;;;;;7.88;6.10;;;23.20;99.90;;;;;;5091856;28;20208;-55
2023/06/30 08:19:08;;;;;;;11.13;6.88;;;23.20;99.90;;;;;;5091872;28;20226;-54
2023/06/30 08:21:36;;;;;;;10.15;6.88;;;23.20;99.90;;;;;;5091071;28;20226;-56
2023/06/30 08:24:03;;;;;;;9.52;6.55;;;23.10;99.90;;;;;;5090987;28;20212;-56
2023/06/30 08:26:30;;;;;;;12.07;7.43;;;23.10;99.90;;;;;;5091260;28;20214;-55
2023/06/30 08:28:57;;;;;;;9.32;6.85;;;23.10;99.90;;;;;;5091461;28;20224;-55
2023/06/30 08:31:23;;;;;;;12.35;7.28;;;23.10;99.90;;;;;;5091353;28;20703;-56
2023/06/30 08:33:50;;;;;;;9.98;7.63;;;23.00;99.90;;;;;;5090982;28;20281;-56
2023/06/30 08:36:17;;;;;;;11.85;7.85;;;23.00;99.90;;;;;;5090930;28;20231;-55
2023/06/30 08:38:45;;;;;;;12.18;7.13;;;23.00;99.90;;;;;;5091002;28;20203;-56
2023/06/30 08:41:13;;;;;;;10.98;8.07;;;23.00;99.90;;;;;;5090989;28;20265;-55
2023/06/30 08:43:42;;;;;;;10.13;7.70;;;23.10;99.90;;;;;;5091029;28;20285;-56
2023/06/30 08:46:11;;;;;;;11.10;7.95;;;23.20;99.90;;;;;;5090568;28;20232;-55
2023/06/30 08:48:38;;;;;;;13.82;7.70;;;23.40;99.90;;;;;;5090792;28;20220;-55
2023/06/30 08:51:05;;;;;;;10.45;8.35;;;23.50;99.90;;;;;;5090825;28;20209;-54
2023/06/30 08:53:33;;;;;;;10.35;8.43;;;23.70;99.90;;;;;;5091190;28;20204;-57
2023/06/30 08:56:01;;;;;;;10.18;8.70;;;23.70;99.90;;;;;;5090872;28;20294;-54
2023/06/30 08:58:28;;;;;;;11.73;8.93;;;23.70;99.90;;;;;;5087681;28;20215;-63
2023/06/30 09:00:55;;;;;;;12.07;10.20;;;23.60;99.90;;;;;;5090795;28;20593;-55
2023/06/30 09:03:22;;;;;;;13.27;10.18;;;23.50;99.90;;;;;;5090274;28;20295;-60
2023/06/30 09:05:53;;;;;;;14.98;10.82;;;23.50;99.90;;;;;;5090105;28;20228;-60
2023/06/30 09:08:24;;;;;;;13.55;10.63;;;23.50;99.90;;;;;;5090047;28;20594;-59
2023/06/30 09:10:51;;;;;;;14.05;11.10;;;23.40;99.90;;;;;;5090632;28;20303;-60
2023/06/30 09:13:21;;;;;;;16.98;13.25;;;23.30;99.90;;;;;;5090432;28;20200;-58
2023/06/30 09:15:48;;;;;;;13.85;10.82;;;23.30;99.90;;;;;;5090314;28;20232;-62
2023/06/30 09:18:15;;;;;;;13.93;11.13;;;23.30;99.90;;;;;;5090673;28;20257;-57
2023/06/30 09:20:42;;;;;;;13.82;11.35;;;23.40;99.90;;;;;;5091090;28;20219;-55
2023/06/30 09:23:09;;;;;;;16.45;11.30;;;23.40;99.90;;;;;;5092485;28;20204;-57
2023/06/30 09:25:42;;;;;;;16.20;11.88;;;23.50;99.90;;;;;;5095976;28;20228;-56
2023/06/30 09:28:12;;;;;;;15.45;11.52;;;23.50;99.90;;;;;;5096653;28;20484;-55
2023/06/30 09:30:43;;;;;;;15.25;12.13;;;23.60;99.90;;;;;;5096958;28;20208;-57
2023/06/30 09:33:09;;;;;;;19.35;13.43;;;23.60;99.90;;;;;;5096404;28;20671;-58
2023/06/30 09:35:40;;;;;;;19.52;12.00;;;23.60;99.90;;;;;;5095607;28;20231;-58
2023/06/30 09:38:12;;;;;;;19.00;13.30;;;23.60;99.90;;;;;;5094079;28;20208;-56
2023/06/30 09:40:42;;;;;;;18.70;12.60;;;23.60;99.90;;;;;;5093883;28;20223;-58
2023/06/30 09:43:09;;;;;;;17.65;12.10;;;23.70;99.90;;;;;;5094041;28;20295;-59
2023/06/30 09:45:36;;;;;;;20.98;16.98;;;23.80;99.90;;;;;;5094325;28;20231;-60
2023/06/30 09:48:06;;;;;;;16.02;12.43;;;23.80;99.90;;;;;;5093594;28;20668;-57
2023/06/30 09:50:32;;;;;;;19.45;12.38;;;23.90;99.90;;;;;;5094263;28;20583;-58
2023/06/30 09:53:01;;;;;;;18.20;12.35;;;23.90;99.90;;;;;;5094189;28;20261;-58
2023/06/30 09:55:28;;;;;;;16.48;11.70;;;23.90;99.90;;;;;;5093878;28;20228;-57
2023/06/30 09:57:56;;;;;;;21.02;15.20;;;24.00;99.90;;;;;;5093789;28;20208;-58
2023/06/30 10:00:25;;;;;;;17.55;12.07;;;24.00;99.90;;;;;;5093894;28;20208;-58
2023/06/30 10:03:03;;;;;;;16.10;12.07;;;23.90;99.90;;;;;;5093812;28;20212;-57
2023/06/30 10:05:30;;;;;;;13.00;11.35;;;24.00;99.90;;;;;;5093766;28;20232;-60
2023/06/30 10:07:58;;;;;;;15.82;12.15;;;24.10;99.90;;;;;;5092940;28;20204;-60
2023/06/30 10:10:26;;;;;;;18.02;14.15;;;24.10;99.90;;;;;;5093531;28;20212;-57
2023/06/30 10:12:54;;;;;;;19.13;13.20;;;24.20;99.90;;;;;;5093698;28;20737;-56
2023/06/30 10:15:21;;;;;;;15.32;12.13;;;24.20;99.90;;;;;;5093169;28;20236;-56
2023/06/30 10:17:49;;;;;;;16.23;13.60;;;24.10;99.90;;;;;;5093429;28;20208;-57
2023/06/30 10:20:17;;;;;;;17.90;12.68;;;24.00;99.90;;;;;;5093753;28;20204;-56
2023/06/30 10:22:45;;;;;;;15.70;11.88;;;23.90;99.90;;;;;;5092915;28;20208;-55
2023/06/30 10:25:14;;;;;;;20.80;12.93;;;23.70;99.90;;;;;;5093024;28;20228;-54
2023/06/30 10:27:41;;;;;;;19.90;12.63;;;23.60;99.90;;;;;;5092778;28;20211;-57
2023/06/30 10:30:10;;;;;;;16.95;12.45;;;23.40;99.90;;;;;;5093009;28;20231;-57
2023/06/30 10:32:37;;;;;;;18.58;12.45;;;23.40;99.90;;;;;;5092947;28;20220;-58
2023/06/30 10:35:04;;;;;;;16.75;12.35;;;23.40;99.90;;;;;;5092712;28;20688;-57
2023/06/30 10:37:32;;;;;;;14.23;11.18;;;23.40;99.90;;;;;;5091883;28;20204;-57
2023/06/30 10:39:59;;;;;;;28.00;25.08;;;23.50;99.90;;;;;;5092823;28;20207;-56
2023/06/30 10:42:27;;;;;;;15.63;12.15;;;23.70;99.90;;;;;;5093049;28;20205;-55
2023/06/30 10:44:59;;;;;;;15.35;12.77;;;23.90;99.90;;;;;;5092573;28;20229;-56
2023/06/30 10:47:27;;;;;;;13.90;11.65;;;23.90;99.90;;;;;;5092769;28;20647;-55
2023/06/30 10:49:55;;;;;;;13.05;11.63;;;24.10;99.90;;;;;;5092040;28;20220;-55
2023/06/30 10:52:26;;;;;;;16.45;12.38;;;24.30;99.90;;;;;;5092558;28;20263;-55
2023/06/30 10:54:54;;;;;;;15.75;12.07;;;24.30;99.90;;;;;;5092571;28;20227;-54
2023/06/30 10:57:24;;;;;;;17.27;13.18;;;24.40;99.90;;;;;;5092662;28;20204;-55
2023/06/30 11:00:04;;;;;;;17.55;14.00;;;24.70;99.90;;;;;;5092619;28;20204;-55
2023/06/30 11:02:32;;;;;;;16.98;14.02;;;24.90;99.90;;;;;;5092718;28;20299;-54
2023/06/30 11:05:18;;;;;;;17.80;14.55;;;24.80;99.90;;;;;;5092209;28;20235;-54
2023/06/30 11:07:47;;;;;;;18.77;14.27;;;24.90;99.90;;;;;;5091974;28;20345;-55
2023/06/30 11:10:27;;;;;;;22.08;19.75;;;24.90;99.90;;;;;;5092102;28;20228;-54
2023/06/30 11:12:56;;;;;;;18.10;14.90;;;25.00;99.90;;;;;;5092113;28;20245;-55
2023/06/30 11:15:28;;;;;;;16.85;13.48;;;25.10;99.90;;;;;;5091887;28;20239;-58
2023/06/30 11:18:02;;;;;;;16.95;13.25;;;25.00;99.90;;;;;;5091856;28;20214;-55
2023/06/30 11:20:29;;;;;;;17.98;13.77;;;24.80;99.90;;;;;;5091893;28;20257;-56
2023/06/30 11:22:58;;;;;;;16.58;13.95;;;24.70;99.90;;;;;;5091663;28;20200;-56
2023/06/30 11:25:26;;;;;;;17.98;15.48;;;24.70;99.90;;;;;;5091502;28;20315;-55
2023/06/30 11:27:53;;;;;;;18.83;15.65;;;24.70;99.90;;;;;;5091600;28;20204;-56
2023/06/30 11:30:21;;;;;;;18.98;15.07;;;24.80;99.90;;;;;;5091722;28;20232;-55
2023/06/30 11:32:48;;;;;;;18.38;14.50;;;25.10;99.90;;;;;;5091672;28;20204;-54
2023/06/30 11:35:17;;;;;;;19.55;14.70;;;25.40;99.90;;;;;;5091485;28;20598;-55
2023/06/30 11:37:48;;;;;;;18.20;15.55;;;25.90;99.90;;;;;;5090953;28;20204;-57
2023/06/30 11:40:15;;;;;;;18.15;15.75;;;26.10;99.90;;;;;;5091530;28;20669;-55
2023/06/30 11:42:43;;;;;;;21.40;17.20;;;26.30;99.90;;;;;;5091987;28;20298;-54
2023/06/30 11:45:16;;;;;;;23.55;18.73;;;26.40;99.90;;;;;;5091630;28;20824;-57
2023/06/30 11:47:46;;;;;;;24.58;17.58;;;26.50;99.90;;;;;;5090714;28;20642;-55
2023/06/30 11:50:13;;;;;;;21.02;17.17;;;26.50;99.90;;;;;;5091273;28;20347;-55
2023/06/30 11:52:41;;;;;;;21.77;16.77;;;26.60;99.90;;;;;;5091217;28;20219;-57
2023/06/30 11:55:09;;;;;;;19.42;16.88;;;26.70;99.90;;;;;;5091466;28;20231;-57
2023/06/30 11:57:36;;;;;;;20.58;17.48;;;26.60;99.90;;;;;;5091661;28;20204;-54
2023/06/30 12:00:17;;;;;;;21.65;17.35;;;26.50;99.90;;;;;;5091294;28;20298;-54
2023/06/30 12:02:45;;;;;;;21.02;17.70;;;26.20;99.90;;;;;;5091089;28;20277;-55
2023/06/30 12:05:17;;;;;;;23.10;18.00;;;26.00;99.90;;;;;;5091549;28;20306;-54
2023/06/30 12:07:45;;;;;;;23.77;18.45;;;25.90;99.90;;;;;;5091336;28;20295;-54
2023/06/30 12:10:12;;;;;;;23.92;19.65;;;25.70;99.90;;;;;;5091504;28;20223;-56
2023/06/30 12:12:39;;;;;;;24.27;19.52;;;25.60;99.90;;;;;;5091431;28;20211;-56
2023/06/30 12:15:09;;;;;;;23.27;19.63;;;25.60;99.90;;;;;;5091260;28;20228;-55
2023/06/30 12:17:42;;;;;;;25.13;19.40;;;25.70;99.90;;;;;;5091284;28;20240;-55
2023/06/30 12:20:10;;;;;;;24.90;21.35;;;25.70;99.90;;;;;;5091488;28;20219;-55
2023/06/30 12:22:38;;;;;;;24.25;20.40;;;25.70;99.90;;;;;;5091507;28;20299;-53
2023/06/30 12:25:11;;;;;;;25.83;21.33;;;25.70;99.90;;;;;;5091161;28;20236;-54
2023/06/30 12:27:41;;;;;;;28.95;21.23;;;25.70;99.90;;;;;;5091024;28;20214;-55
2023/06/30 12:30:14;;;;;;;24.75;20.58;;;25.60;99.90;;;;;;5091353;28;20219;-55
2023/06/30 12:32:43;;;;;;;23.63;19.65;;;25.60;99.90;;;;;;5091202;28;20240;-54
2023/06/30 12:35:10;;;;;;;21.30;18.55;;;25.70;99.90;;;;;;5091403;28;20311;-54
2023/06/30 12:37:37;;;;;;;23.73;19.40;;;25.70;99.90;;;;;;5091214;28;20643;-53
2023/06/30 12:40:05;;;;;;;23.27;19.08;;;25.80;99.90;;;;;;5091067;28;20196;-53
2023/06/30 12:42:33;;;;;;;21.80;17.88;;;26.00;99.90;;;;;;5090954;28;20212;-55